createdAt,value
2022-09-28T00:02:25.842Z,12.73
2022-09-28T00:04:56.386Z,12.71
2022-09-28T00:07:26.859Z,12.54
2022-09-28T00:09:57.260Z,12.67
2022-09-28T00:12:31.753Z,12.64
2022-09-28T00:15:02.789Z,12.62
2022-09-28T00:17:33.317Z,12.60
2022-09-28T00:20:05.129Z,12.57
2022-09-28T00:22:35.743Z,12.54
2022-09-28T00:25:06.277Z,12.49
2022-09-28T00:27:39.387Z,12.46
2022-09-28T00:30:11.649Z,12.44
2022-09-28T00:32:41.996Z,12.42
2022-09-28T00:35:13.370Z,12.39
2022-09-28T00:37:43.918Z,12.30
2022-09-28T00:40:14.467Z,12.29
2022-09-28T00:42:47.523Z,12.28
2022-09-28T00:45:18.504Z,12.25
2022-09-28T00:47:52.387Z,12.23
2022-09-28T00:50:29.669Z,12.18
2022-09-28T00:53:07.525Z,12.18
2022-09-28T00:55:45.085Z,12.18
2022-09-28T00:58:21.796Z,12.15
2022-09-28T01:00:52.799Z,12.15
2022-09-28T01:03:23.632Z,12.13
2022-09-28T01:05:56.041Z,12.11
2022-09-28T01:08:29.290Z,12.01
2022-09-28T01:11:01.066Z,12.02
2022-09-28T01:13:35.817Z,11.94
2022-09-28T01:16:22.827Z,11.91
2022-09-28T01:19:02.685Z,11.87
2022-09-28T01:21:46.171Z,11.85
2022-09-28T01:24:40.353Z,11.81
2022-09-28T01:27:18.865Z,11.74
2022-09-28T01:29:59.966Z,11.74
2022-09-28T01:32:39.989Z,11.69
2022-09-28T01:35:15.179Z,11.61
2022-09-28T01:37:52.155Z,11.61
2022-09-28T01:40:25.720Z,11.60
2022-09-28T01:43:04.225Z,11.56
2022-09-28T01:45:39.050Z,11.57
2022-09-28T01:48:11.046Z,11.56
2022-09-28T01:50:44.905Z,11.53
2022-09-28T01:53:20.567Z,11.52
2022-09-28T01:55:55.074Z,11.51
2022-09-28T01:58:34.211Z,11.46
2022-09-28T02:01:09.494Z,11.46
2022-09-28T02:03:43.886Z,11.44
2022-09-28T02:06:19.408Z,11.39
2022-09-28T02:08:57.670Z,11.42
2022-09-28T02:11:37.675Z,11.38
2022-09-28T02:14:14.957Z,11.40
2022-09-28T02:16:50.053Z,11.38
2022-09-28T02:19:26.905Z,11.31
2022-09-28T02:22:02.377Z,11.34
2022-09-28T02:24:37.270Z,11.33
2022-09-28T02:27:15.919Z,11.29
2022-09-28T02:29:49.322Z,11.28
2022-09-28T02:32:22.812Z,11.27
2022-09-28T02:34:53.565Z,11.24
2022-09-28T02:37:24.003Z,11.22
2022-09-28T02:39:54.907Z,11.15
2022-09-28T02:42:31.265Z,11.06
2022-09-28T02:45:19.794Z,11.13
2022-09-28T02:48:06.294Z,11.11
2022-09-28T02:50:50.099Z,11.09
2022-09-28T02:53:36.640Z,11.08
2022-09-28T02:56:25.652Z,11.03
2022-09-28T02:59:05.295Z,10.98
2022-09-28T03:01:48.286Z,10.96
2022-09-28T03:04:34.035Z,10.91
2022-09-28T03:07:10.821Z,10.95
2022-09-28T03:09:48.106Z,10.93
2022-09-28T03:12:21.497Z,10.89
2022-09-28T03:14:52.040Z,10.84
2022-09-28T03:17:26.480Z,10.79
2022-09-28T03:19:56.974Z,10.78
2022-09-28T03:22:28.725Z,10.79
2022-09-28T03:24:59.159Z,10.72
2022-09-28T03:27:29.846Z,10.75
2022-09-28T03:30:00.296Z,10.72
2022-09-28T03:32:33.400Z,10.70
2022-09-28T03:35:04.260Z,10.64
2022-09-28T03:37:34.687Z,10.65
2022-09-28T03:40:05.807Z,10.63
2022-09-28T03:42:39.693Z,10.59
2022-09-28T03:45:11.073Z,10.58
2022-09-28T03:47:48.880Z,10.57
2022-09-28T03:50:19.604Z,10.55
2022-09-28T03:52:51.965Z,10.52
2022-09-28T03:55:22.478Z,10.52
2022-09-28T03:57:57.357Z,10.50
2022-09-28T04:00:28.118Z,10.49
2022-09-28T04:03:01.841Z,10.46
2022-09-28T04:05:32.407Z,10.46
2022-09-28T04:08:02.929Z,10.43
2022-09-28T04:10:33.481Z,10.40
2022-09-28T04:13:03.894Z,10.33
2022-09-28T04:15:34.333Z,10.37
2022-09-28T04:18:07.493Z,10.35
2022-09-28T04:21:06.938Z,10.26
2022-09-28T04:23:43.286Z,10.32
2022-09-28T04:26:19.426Z,10.30
2022-09-28T04:29:06.363Z,10.29
2022-09-28T04:31:41.958Z,10.28
2022-09-28T04:34:17.461Z,10.25
2022-09-28T04:36:48.655Z,10.26
2022-09-28T04:39:20.393Z,10.25
2022-09-28T04:41:54.243Z,10.25
2022-09-28T04:44:24.780Z,10.22
2022-09-28T04:47:04.959Z,10.26
2022-09-28T04:49:38.606Z,10.28
2022-09-28T04:52:18.230Z,10.30
2022-09-28T04:54:51.703Z,10.32
2022-09-28T04:57:22.154Z,10.39
2022-09-28T04:59:52.540Z,10.45
2022-09-28T05:02:22.951Z,10.54
2022-09-28T05:05:19.441Z,10.66
2022-09-28T05:08:19.773Z,10.78
2022-09-28T05:10:50.631Z,10.89
2022-09-28T05:13:23.308Z,11.05
2022-09-28T05:15:58.950Z,11.25
2022-09-28T05:18:34.540Z,11.47
2022-09-28T05:21:13.252Z,11.72
2022-09-28T05:23:48.766Z,11.97
2022-09-28T05:26:19.509Z,12.23
2022-09-28T05:28:50.057Z,12.51
2022-09-28T05:31:40.763Z,12.81
2022-09-28T05:34:31.689Z,13.10
2022-09-28T05:37:04.932Z,13.38
2022-09-28T05:39:35.333Z,13.66
2022-09-28T05:42:06.168Z,13.94
2022-09-28T05:44:38.614Z,14.23
2022-09-28T05:47:09.281Z,14.56
2022-09-28T05:49:39.752Z,14.93
2022-09-28T05:52:12.797Z,15.23
2022-09-28T05:54:43.789Z,15.56
2022-09-28T05:57:14.508Z,15.95
2022-09-28T05:59:44.924Z,16.31
2022-09-28T06:02:15.372Z,16.73
2022-09-28T06:04:49.686Z,17.17
2022-09-28T06:07:23.586Z,17.64
2022-09-28T06:09:54.033Z,18.10
2022-09-28T06:12:38.653Z,18.58
2022-09-28T06:15:16.206Z,19.05
2022-09-28T06:17:47.805Z,19.45
2022-09-28T06:20:38.973Z,19.91
2022-09-28T06:23:19.768Z,20.38
2022-09-28T06:25:50.215Z,20.77
2022-09-28T06:28:20.664Z,21.20
2022-09-28T06:30:51.103Z,21.52
2022-09-28T06:33:22.429Z,21.74
2022-09-28T06:35:52.862Z,21.95
2022-09-28T06:38:25.924Z,22.08
2022-09-28T06:40:56.624Z,22.30
2022-09-28T06:43:32.160Z,22.63
2022-09-28T06:46:17.091Z,22.97
2022-09-28T06:48:54.807Z,23.19
2022-09-28T06:51:45.127Z,23.43
2022-09-28T06:54:36.811Z,23.76
2022-09-28T06:57:25.849Z,24.04
2022-09-28T06:59:56.440Z,24.24
2022-09-28T07:02:26.903Z,24.47
2022-09-28T07:05:08.341Z,24.69
2022-09-28T07:08:02.138Z,24.95
2022-09-28T07:10:56.461Z,25.08
2022-09-28T07:16:32.055Z,25.64
2022-09-28T07:19:06.532Z,25.90
2022-09-28T07:21:37.113Z,26.14
2022-09-28T07:24:14.397Z,26.41
2022-09-28T07:27:10.296Z,26.73
2022-09-28T07:29:59.028Z,27.05
2022-09-28T07:32:59.687Z,27.38
2022-09-28T07:35:39.647Z,27.63
2022-09-28T07:38:11.204Z,27.94
2022-09-28T07:40:54.015Z,28.23
2022-09-28T07:43:27.145Z,28.56
2022-09-28T07:45:58.418Z,28.85
2022-09-28T07:48:29.846Z,29.07
2022-09-28T07:51:12.927Z,29.24
2022-09-28T07:53:46.056Z,29.46
2022-09-28T07:56:39.731Z,29.59
2022-09-28T07:59:22.354Z,29.60
2022-09-28T08:02:13.128Z,29.69
2022-09-28T08:04:44.672Z,29.77
2022-09-28T08:07:17.789Z,29.87
2022-09-28T08:09:56.563Z,29.98
2022-09-28T08:12:29.834Z,30.08
2022-09-28T08:15:21.647Z,30.01
2022-09-28T08:18:11.641Z,29.93
2022-09-28T08:20:54.381Z,29.85
2022-09-28T08:23:25.072Z,29.80
2022-09-28T08:25:56.955Z,29.78
2022-09-28T08:28:28.040Z,29.83
2022-09-28T08:31:07.640Z,29.82
2022-09-28T08:33:56.580Z,29.72
2022-09-28T08:36:50.281Z,29.55
2022-09-28T08:39:39.909Z,29.34
2022-09-28T08:42:34.608Z,29.09
2022-09-28T08:45:43.310Z,28.72
2022-09-28T08:49:13.380Z,28.36
2022-09-28T08:52:19.373Z,27.93
2022-09-28T08:55:10.388Z,27.61
2022-09-28T08:57:51.784Z,27.33
2022-09-28T09:00:26.752Z,27.10
2022-09-28T09:02:57.355Z,26.83
2022-09-28T09:05:50.217Z,26.56
2022-09-28T09:08:53.054Z,26.34
2022-09-28T09:11:41.225Z,26.12
2022-09-28T09:14:32.080Z,25.93
2022-09-28T09:17:09.345Z,25.65
2022-09-28T09:20:04.725Z,25.61
2022-09-28T09:23:07.153Z,25.49
2022-09-28T09:25:44.334Z,25.37
2022-09-28T09:28:42.240Z,25.28
2022-09-28T09:31:27.341Z,25.20
2022-09-28T09:34:32.144Z,25.14
2022-09-28T09:37:34.768Z,25.11
2022-09-28T09:40:37.874Z,25.10
2022-09-28T09:43:59.024Z,25.11
2022-09-28T09:47:10.659Z,25.06
2022-09-28T09:49:56.743Z,25.02
2022-09-28T09:52:31.265Z,24.95
2022-09-28T09:55:06.291Z,24.90
2022-09-28T09:58:10.138Z,24.82
2022-09-28T10:00:47.005Z,24.74
2022-09-28T10:03:31.068Z,24.68
2022-09-28T10:06:20.885Z,24.66
2022-09-28T10:08:55.325Z,24.66
2022-09-28T10:11:31.868Z,24.62
2022-09-28T10:14:05.943Z,24.64
2022-09-28T10:16:43.254Z,24.71
2022-09-28T10:19:23.284Z,24.80
2022-09-28T10:22:19.071Z,24.87
2022-09-28T10:24:55.054Z,24.97
2022-09-28T10:27:28.720Z,25.08
2022-09-28T10:30:05.637Z,25.24
2022-09-28T10:32:42.064Z,25.41
2022-09-28T10:35:24.487Z,25.55
2022-09-28T10:38:03.497Z,25.64
2022-09-28T10:40:54.490Z,25.79
2022-09-28T10:43:45.435Z,25.90
2022-09-28T10:46:25.648Z,26.05
2022-09-28T10:49:02.984Z,26.20
2022-09-28T10:51:46.813Z,26.30
2022-09-28T10:54:22.838Z,26.34
2022-09-28T10:56:56.874Z,26.42
2022-09-28T10:59:49.933Z,26.62
2022-09-28T11:02:46.003Z,26.73
2022-09-28T11:05:28.072Z,26.85
2022-09-28T11:08:04.092Z,27.01
2022-09-28T11:10:45.392Z,27.10
2022-09-28T11:13:17.862Z,27.13
2022-09-28T11:15:57.718Z,27.09
2022-09-28T11:18:38.003Z,26.97
2022-09-28T11:21:16.053Z,26.85
2022-09-28T11:24:25.538Z,26.72
2022-09-28T11:27:01.222Z,26.61
2022-09-28T11:29:40.278Z,26.51
2022-09-28T11:32:34.439Z,26.42
2022-09-28T11:35:50.819Z,26.28
2022-09-28T11:38:34.910Z,26.21
2022-09-28T11:41:48.923Z,26.16
2022-09-28T11:44:41.503Z,26.12
2022-09-28T11:47:30.326Z,26.10
2022-09-28T11:50:07.001Z,26.10
2022-09-28T11:52:49.259Z,26.22
2022-09-28T11:55:27.549Z,26.36
2022-09-28T11:58:04.479Z,26.50
2022-09-28T12:00:40.811Z,26.71
2022-09-28T12:03:17.828Z,26.85
2022-09-28T12:05:52.496Z,26.97
2022-09-28T12:08:29.647Z,27.00
2022-09-28T12:11:06.637Z,26.98
2022-09-28T12:13:57.674Z,26.85
2022-09-28T12:17:00.951Z,26.82
2022-09-28T12:19:32.364Z,26.69
2022-09-28T12:22:08.305Z,26.55
2022-09-28T12:24:46.249Z,26.41
2022-09-28T12:27:23.897Z,26.25
2022-09-28T12:30:00.460Z,26.10
2022-09-28T12:32:39.713Z,25.89
2022-09-28T12:35:16.301Z,25.77
2022-09-28T12:38:14.584Z,25.57
2022-09-28T12:40:56.370Z,25.41
2022-09-28T12:43:43.775Z,25.30
2022-09-28T12:46:35.409Z,25.21
2022-09-28T12:52:27.459Z,25.05
2022-09-28T12:55:22.216Z,24.97
2022-09-28T12:58:02.071Z,24.89
2022-09-28T13:00:40.504Z,24.78
2022-09-28T13:03:57.087Z,24.82
2022-09-28T13:06:44.862Z,24.78
2022-09-28T13:09:24.601Z,24.74
2022-09-28T13:12:28.371Z,24.71
2022-09-28T13:15:40.655Z,24.67
2022-09-28T13:18:19.438Z,24.58
2022-09-28T13:21:09.075Z,24.59
2022-09-28T13:23:43.624Z,24.57
2022-09-28T13:26:25.410Z,24.46
2022-09-28T13:28:59.000Z,24.51
2022-09-28T13:31:36.052Z,24.47
2022-09-28T13:34:13.317Z,24.43
2022-09-28T13:36:47.982Z,24.41
2022-09-28T13:39:40.893Z,24.36
2022-09-28T13:42:12.870Z,24.33
2022-09-28T13:45:09.709Z,24.30
2022-09-28T13:47:59.234Z,24.23
2022-09-28T13:50:44.645Z,24.19
2022-09-28T13:53:28.745Z,24.16
2022-09-28T13:56:07.372Z,24.13
2022-09-28T13:58:41.956Z,24.10
2022-09-28T14:01:18.263Z,24.06
2022-09-28T14:04:14.998Z,24.04
2022-09-28T14:06:49.485Z,24.00
2022-09-28T14:09:43.877Z,23.91
2022-09-28T14:12:33.550Z,23.94
2022-09-28T14:15:04.577Z,23.93
2022-09-28T14:18:03.566Z,23.90
2022-09-28T14:20:39.178Z,23.87
2022-09-28T14:23:30.072Z,23.86
2022-09-28T14:26:30.546Z,23.80
2022-09-28T14:29:11.809Z,23.75
2022-09-28T14:31:46.231Z,23.70
2022-09-28T14:34:44.772Z,23.62
2022-09-28T14:37:42.006Z,23.55
2022-09-28T14:40:31.938Z,23.48
2022-09-28T14:43:28.376Z,23.43
2022-09-28T14:46:28.728Z,23.37
2022-09-28T14:49:01.870Z,23.31
2022-09-28T14:52:01.259Z,23.25
2022-09-28T14:54:43.637Z,23.17
2022-09-28T14:57:21.082Z,23.13
2022-09-28T14:59:51.928Z,23.09
2022-09-28T15:02:35.495Z,23.03
2022-09-28T15:05:18.861Z,22.98
2022-09-28T15:07:52.022Z,22.93
2022-09-28T15:10:34.148Z,22.83
2022-09-28T15:13:06.726Z,22.84
2022-09-28T15:15:40.826Z,22.79
2022-09-28T15:18:29.071Z,22.70
2022-09-28T15:21:00.718Z,22.67
2022-09-28T15:23:38.983Z,22.59
2022-09-28T15:26:27.668Z,22.54
2022-09-28T15:28:58.568Z,22.47
2022-09-28T15:31:31.265Z,22.42
2022-09-28T15:34:14.103Z,22.37
2022-09-28T15:36:47.165Z,22.30
2022-09-28T15:39:21.216Z,22.24
2022-09-28T15:41:55.058Z,22.18
2022-09-28T15:44:45.741Z,22.09
2022-09-28T15:47:21.213Z,22.01
2022-09-28T15:49:59.830Z,21.90
2022-09-28T15:52:37.227Z,21.81
2022-09-28T15:55:21.794Z,21.72
2022-09-28T15:58:09.208Z,21.64
2022-09-28T16:00:40.462Z,21.54
2022-09-28T16:03:25.869Z,21.46
2022-09-28T16:06:08.695Z,21.39
2022-09-28T16:08:44.519Z,21.27
2022-09-28T16:11:20.391Z,21.23
2022-09-28T16:14:01.885Z,21.15
2022-09-28T16:16:41.120Z,21.13
2022-09-28T16:19:26.792Z,21.06
2022-09-28T16:21:59.640Z,21.04
2022-09-28T16:24:32.669Z,20.97
2022-09-28T16:27:05.736Z,20.90
2022-09-28T16:29:42.219Z,20.82
2022-09-28T16:32:41.984Z,20.75
2022-09-28T16:35:22.000Z,20.68
2022-09-28T16:38:00.313Z,20.60
2022-09-28T16:40:31.554Z,20.52
2022-09-28T16:43:04.448Z,20.48
2022-09-28T16:45:38.207Z,20.41
2022-09-28T16:48:08.823Z,20.37
2022-09-28T16:50:39.222Z,20.30
2022-09-28T16:53:29.289Z,20.15
2022-09-28T16:56:01.029Z,20.18
2022-09-28T16:58:32.196Z,20.13
2022-09-28T17:01:05.400Z,20.08
2022-09-28T17:03:35.983Z,20.03
2022-09-28T17:06:10.348Z,19.97
2022-09-28T17:08:40.830Z,19.90
2022-09-28T17:11:20.187Z,19.85
2022-09-28T17:13:59.151Z,19.79
2022-09-28T17:17:06.251Z,19.69
2022-09-28T17:19:28.902Z,19.58
2022-09-28T17:21:59.498Z,19.52
2022-09-28T17:24:29.967Z,19.43
2022-09-28T17:27:00.985Z,19.31
2022-09-28T17:29:32.859Z,19.25
2022-09-28T17:32:05.962Z,19.18
2022-09-28T17:34:36.406Z,19.11
2022-09-28T17:37:06.908Z,19.02
2022-09-28T17:39:37.330Z,18.94
2022-09-28T17:42:08.124Z,18.81
2022-09-28T17:44:38.710Z,18.76
2022-09-28T17:47:13.592Z,18.64
2022-09-28T17:49:45.969Z,18.53
2022-09-28T17:52:17.213Z,18.41
2022-09-28T17:54:47.617Z,18.33
2022-09-28T17:57:18.117Z,18.21
2022-09-28T17:59:48.748Z,18.16
2022-09-28T18:02:21.808Z,18.09
2022-09-28T18:04:52.761Z,18.02
2022-09-28T18:07:23.319Z,17.97
2022-09-28T18:09:58.433Z,17.89
2022-09-28T18:12:28.893Z,17.86
2022-09-28T18:14:59.290Z,17.82
2022-09-28T18:17:32.547Z,17.76
2022-09-28T18:20:03.132Z,17.74
2022-09-28T18:22:33.836Z,17.68
2022-09-28T18:25:04.598Z,17.63
2022-09-28T18:27:35.973Z,17.60
2022-09-28T18:30:07.689Z,17.56
2022-09-28T18:32:41.025Z,17.56
2022-09-28T18:35:13.186Z,17.53
2022-09-28T18:37:44.086Z,17.47
2022-09-28T18:40:15.783Z,17.44
2022-09-28T18:42:46.256Z,17.42
2022-09-28T18:45:17.533Z,17.37
2022-09-28T18:47:50.605Z,17.35
2022-09-28T18:50:21.196Z,17.31
2022-09-28T18:52:51.785Z,17.28
2022-09-28T18:55:22.347Z,17.24
2022-09-28T18:57:53.114Z,17.19
2022-09-28T19:00:23.769Z,17.20
2022-09-28T19:02:57.209Z,17.15
2022-09-28T19:05:27.788Z,17.09
2022-09-28T19:07:58.544Z,17.12
2022-09-28T19:10:29.080Z,17.06
2022-09-28T19:12:59.798Z,17.03
2022-09-28T19:15:30.318Z,17.00
2022-09-28T19:18:04.140Z,16.98
2022-09-28T19:20:35.932Z,16.92
2022-09-28T19:23:06.452Z,16.87
2022-09-28T19:25:38.066Z,16.86
2022-09-28T19:28:08.545Z,16.83
2022-09-28T19:30:39.168Z,16.81
2022-09-28T19:33:12.256Z,16.80
2022-09-28T19:35:42.791Z,16.79
2022-09-28T19:38:13.186Z,16.80
2022-09-28T19:40:44.031Z,16.76
2022-09-28T19:43:14.471Z,16.74
2022-09-28T19:45:44.968Z,16.69
2022-09-28T19:48:18.033Z,17.20
2022-09-28T19:50:48.783Z,17.97
2022-09-28T19:53:19.307Z,18.68
2022-09-28T19:55:54.164Z,19.34
2022-09-28T19:58:24.944Z,19.79
2022-09-28T20:00:55.453Z,20.08
2022-09-28T20:03:29.309Z,20.30
2022-09-28T20:06:00.703Z,20.47
2022-09-28T20:08:31.565Z,20.55
2022-09-28T20:11:03.293Z,20.63
2022-09-28T20:13:35.106Z,20.67
2022-09-28T20:16:10.224Z,20.71
2022-09-28T20:18:50.209Z,20.71
2022-09-28T20:21:26.787Z,20.71
2022-09-28T20:23:57.584Z,20.64
2022-09-28T20:26:29.669Z,20.63
2022-09-28T20:29:00.116Z,20.57
2022-09-28T20:31:30.615Z,20.49
2022-09-28T20:34:03.724Z,20.40
2022-09-28T20:36:34.438Z,20.35
2022-09-28T20:39:07.317Z,20.29
2022-09-28T20:41:37.741Z,20.16
2022-09-28T20:44:09.808Z,19.98
2022-09-28T20:46:41.127Z,19.97
2022-09-28T20:49:14.538Z,19.92
2022-09-28T20:51:45.640Z,19.83
2022-09-28T20:54:16.002Z,19.74
2022-09-28T20:56:48.357Z,19.70
2022-09-28T20:59:20.387Z,19.60
2022-09-28T21:01:51.232Z,19.56
2022-09-28T21:04:24.445Z,19.40
2022-09-28T21:06:55.005Z,19.03
2022-09-28T21:09:25.444Z,18.88
2022-09-28T21:11:55.937Z,18.60
2022-09-28T21:14:26.327Z,18.24
2022-09-28T21:16:56.839Z,18.07
2022-09-28T21:19:30.835Z,17.83
2022-09-28T21:22:01.267Z,17.60
2022-09-28T21:24:31.657Z,17.37
2022-09-28T21:27:02.096Z,17.19
2022-09-28T21:29:32.548Z,17.02
2022-09-28T21:32:02.954Z,16.89
2022-09-28T21:34:36.173Z,16.75
2022-09-28T21:37:06.535Z,16.53
2022-09-28T21:39:37.168Z,16.51
2022-09-28T21:42:07.909Z,16.46
2022-09-28T21:44:38.319Z,16.39
2022-09-28T21:47:08.744Z,16.27
2022-09-28T21:49:41.780Z,16.23
2022-09-28T21:52:12.228Z,16.15
2022-09-28T21:54:42.794Z,16.07
2022-09-28T21:57:13.179Z,15.98
2022-09-28T21:59:43.545Z,15.93
2022-09-28T22:02:14.194Z,15.87
2022-09-28T22:04:47.214Z,15.82
2022-09-28T22:07:17.618Z,15.75
2022-09-28T22:09:52.765Z,15.66
2022-09-28T22:12:23.901Z,15.53
2022-09-28T22:14:54.489Z,15.45
2022-09-28T22:17:24.868Z,15.45
2022-09-28T22:19:57.985Z,15.39
2022-09-28T22:22:29.292Z,15.36
2022-09-28T22:24:59.759Z,15.28
2022-09-28T22:27:33.633Z,15.27
2022-09-28T22:30:04.043Z,15.22
2022-09-28T22:32:34.421Z,15.28
2022-09-28T22:35:08.195Z,15.25
2022-09-28T22:37:38.676Z,15.22
2022-09-28T22:40:11.376Z,15.20
2022-09-28T22:42:43.035Z,15.17
2022-09-28T22:45:13.816Z,15.16
2022-09-28T22:47:44.367Z,15.14
2022-09-28T22:50:17.539Z,15.12
2022-09-28T22:52:48.654Z,15.08
2022-09-28T22:55:19.213Z,15.01
2022-09-28T22:57:49.607Z,15.00
2022-09-28T23:00:20.260Z,14.98
2022-09-28T23:02:51.181Z,14.95
2022-09-28T23:05:24.299Z,14.90
2022-09-28T23:07:54.637Z,14.87
2022-09-28T23:10:25.086Z,14.83
2022-09-28T23:12:56.621Z,14.81
2022-09-28T23:15:28.687Z,14.79
2022-09-28T23:17:59.080Z,14.76
2022-09-28T23:20:32.197Z,14.74
2022-09-28T23:23:02.577Z,14.71
2022-09-28T23:25:33.374Z,14.65
2022-09-28T23:28:04.264Z,14.65
2022-09-28T23:30:34.728Z,14.64
2022-09-28T23:33:05.115Z,14.64
2022-09-28T23:35:39.296Z,14.60
2022-09-28T23:38:09.757Z,14.59
2022-09-28T23:40:40.338Z,14.56
2022-09-28T23:43:11.311Z,14.55
2022-09-28T23:45:42.453Z,14.51
2022-09-28T23:48:15.231Z,14.45
2022-09-28T23:50:48.567Z,14.47
2022-09-28T23:53:19.056Z,14.44
2022-09-28T23:55:49.608Z,14.38
2022-09-28T23:58:20.024Z,14.36
